Aranda — OIRY — position and weather

sailwx.info

Track history (hours):
 
Tides and Currents Weather Stations Pressure Air Temp Water Temp Dewpoint Dewpoint Depression Visibility Wind Speed Wind Dir Waves Ship Positions

Oceanographic research ship Aranda (Finland)

Detailed information on ship capabilities available from University of Delaware's Ocean Information Center and ARCUS's ALIAS (Arctic Logistics Information and Support) project.

Last reported at 2019-Feb-23 23:33 UTC. Time now 2019-Feb-24 00:17 UTC.
Position N 57°50' E 017°36'.

Length 66 m; draft 4.6 m.

Type: Neutral ship in war zone. MMSI: 230145000.

Date/timePositionNaut miles runAvg speedWind from/ knotsBaromVisibWave heightAir tempDewpointWater temp
2019-Feb-23 23:33N 57°50' E 017°36'112.1
2019-Feb-23 23:30N 57°49' E 017°35'612.3
2019-Feb-23 23:00N 57°45' E 017°26'3 5.7
2019-Feb-23 22:28N 57°43' E 017°22'49 7.8
2019-Feb-23 16:11N 56°54' E 017°25'3112.2
2019-Feb-23 13:38N 56°27' E 016°55'212.1
2019-Feb-23 13:30N 56°26' E 016°54'612.3
2019-Feb-23 13:00N 56°21' E 016°48'612.5
2019-Feb-23 12:31N 56°16' E 016°42'612.5
2019-Feb-23 12:01N 56°10' E 016°36'4 7.8
2019-Feb-23 11:30N 56°07' E 016°32'0 0.0
2019-Feb-23 11:00N 56°07' E 016°32'5 9.7
2019-Feb-23 10:30N 56°06' E 016°24'611.7
2019-Feb-23 10:00N 56°11' E 016°19'612.3
2019-Feb-23 09:30N 56°17' E 016°15'611.7
2019-Feb-23 09:00N 56°22' E 016°12'0 0.0
2019-Feb-23 08:30N 56°22' E 016°12'2 4.6
2019-Feb-23 08:00N 56°20' E 016°11'612.4
2019-Feb-23 07:30N 56°14' E 016°08'612.3
2019-Feb-23 07:00N 56°09' E 016°03'612.6
2019-Feb-23 06:31N 56°03' E 015°57'612.8
2019-Feb-23 06:01N 55°58' E 015°50'612.2
2019-Feb-23 05:31N 55°54' E 015°42'612.7
2019-Feb-23 05:01N 55°51' E 015°32'612.6
2019-Feb-23 04:30N 55°48' E 015°22'1 2.0
2019-Feb-23 04:00N 55°48' E 015°20'1 1.1
2019-Feb-23 03:31N 55°48' E 015°19'612.3
2019-Feb-23 03:01N 55°44' E 015°10'612.3
2019-Feb-23 02:31N 55°41' E 015°01'612.2
2019-Feb-23 01:59N 55°37' E 014°52'0 0.2
2019-Feb-23 01:23N 55°37' E 014°52'3 4.6
2019-Feb-23 00:40N 55°34' E 014°48'212.4
2019-Feb-23 00:30N 55°33' E 014°46'612.4
2019-Feb-23 00:00N 55°27' E 014°42'912.5
2019-Feb-22 23:15N 55°20' E 014°32'412.5
2019-Feb-22 22:58N 55°17' E 014°28'912.6
2019-Feb-22 22:17N 55°10' E 014°20'412.7
2019-Feb-22 21:58N 55°06' E 014°16'612.7
2019-Feb-22 21:30N 55°02' E 014°10'4 2.8
2019-Feb-22 20:03N 54°58' E 014°06'0 0.0
2019-Feb-22 19:59N 54°58' E 014°06'45 9.1
2019-Feb-22 14:58N 55°10' E 012°49'4 9.5
2019-Feb-22 14:30N 55°12' E 012°42'5 9.2
2019-Feb-22 14:00N 55°14' E 012°36'2 4.6
2019-Feb-22 13:30N 55°16' E 012°34'1 1.5
2019-Feb-22 13:00N 55°17' E 012°35'5 9.8
2019-Feb-22 12:30N 55°22' E 012°37'5 9.7
2019-Feb-22 12:00N 55°26' E 012°39'5 9.6
2019-Feb-22 11:30N 55°31' E 012°41'4 8.9
2019-Feb-22 11:00N 55°35' E 012°42'4 8.6
2019-Feb-22 10:30N 55°40' E 012°41'4 9.0
2019-Feb-22 10:00N 55°44' E 012°41'5 9.3
2019-Feb-22 09:30N 55°49' E 012°40'4 8.8
2019-Feb-22 09:00N 55°53' E 012°39'4 8.8
2019-Feb-22 08:30N 55°58' E 012°40'4 8.9
2019-Feb-22 08:00N 56°02' E 012°39'4 7.7
2019-Feb-22 07:30N 56°05' E 012°35'4 7.2
2019-Feb-22 07:00N 56°07' E 012°30'64 6.6
2019-Feb-21 21:19N 57°10' E 011°59'3 9.4
2019-Feb-21 21:00N 57°12' E 011°57'5 9.2
2019-Feb-21 20:30N 57°16' E 011°53'5 9.8
2019-Feb-21 20:00N 57°21' E 011°48'5 9.9
2019-Feb-21 19:30N 57°25' E 011°44'5 9.7
2019-Feb-21 19:00N 57°29' E 011°40'5 9.5
2019-Feb-21 18:30N 57°34' E 011°38'510.7
2019-Feb-21 18:00N 57°39' E 011°42'510.1
2019-Feb-21 17:30N 57°41' E 011°50'3 6.4
2019-Feb-21 17:00N 57°42' E 011°56'0 0.0
2019-Feb-21 16:30N 57°42' E 011°56'0 0.0
2019-Feb-21 16:00N 57°42' E 011°56'0 0.0
2019-Feb-21 15:30N 57°42' E 011°56'0 0.0
2019-Feb-21 15:00N 57°42' E 011°56'0 0.6
2019-Feb-21 14:30N 57°42' E 011°55'4 8.1
2019-Feb-21 14:00N 57°41' E 011°48'5 9.0
2019-Feb-21 13:30N 57°38' E 011°41'4 7.4
2019-Feb-21 13:00N 57°38' E 011°35'5 9.7
2019-Feb-21 12:30N 57°41' E 011°28'5 9.2
2019-Feb-21 12:00N 57°45' E 011°23'510.0
2019-Feb-21 11:30N 57°49' E 011°20'3 5.5
2019-Feb-21 11:00N 57°52' E 011°18'0 0.0
2019-Feb-21 10:30N 57°52' E 011°18'4 7.6
2019-Feb-21 10:00N 57°56' E 011°15'510.0
2019-Feb-21 09:30N 58°00' E 011°13'5 9.2
2019-Feb-21 09:00N 58°05' E 011°10'4 8.8
2019-Feb-21 08:30N 58°09' E 011°08'5 9.6
2019-Feb-21 08:00N 58°14' E 011°05'5 9.6
2019-Feb-21 07:30N 58°18' E 011°03'2 4.3
2019-Feb-21 07:00N 58°20' E 011°02'0 0.1
2019-Feb-21 06:30N 58°20' E 011°02'3 6.0
2019-Feb-21 06:00N 58°19' E 010°57'1 1.9
2019-Feb-21 05:30N 58°19' E 010°55'2 4.8
2019-Feb-21 05:00N 58°18' E 010°51'0 0.0
2019-Feb-21 04:30N 58°18' E 010°51'0 0.7
2019-Feb-21 04:00N 58°18' E 010°50'4 7.5
2019-Feb-21 03:30N 58°16' E 010°43'0 0.4
2019-Feb-21 03:00N 58°16' E 010°43'510.2
2019-Feb-21 02:30N 58°17' E 010°34'2 3.5
2019-Feb-21 02:00N 58°17' E 010°30'0 0.0
2019-Feb-21 01:30N 58°17' E 010°30'0 0.0
2019-Feb-21 01:00N 58°17' E 010°30'0 0.1
2019-Feb-21 00:30N 58°17' E 010°30'5 9.1
2019-Feb-21 00:00N 58°13' E 010°34'510.3
2019-Feb-20 23:30N 58°09' E 010°39'510.1
2019-Feb-20 23:00N 58°04' E 010°45'510.4
2019-Feb-20 22:30N 58°00' E 010°50'510.5
2019-Feb-20 22:00N 57°56' E 010°55'510.2
2019-Feb-20 21:30N 57°51' E 010°60'510.1
2019-Feb-20 21:00N 57°47' E 011°05'5 9.9
2019-Feb-20 20:30N 57°43' E 011°10'5 9.8
2019-Feb-20 20:00N 57°38' E 011°14'5 9.7
2019-Feb-20 19:30N 57°34' E 011°19'510.1
2019-Feb-20 19:00N 57°30' E 011°24'5 9.8
2019-Feb-20 18:30N 57°26' E 011°28'5 9.9
2019-Feb-20 18:00N 57°21' E 011°32'510.0
2019-Feb-20 17:30N 57°16' E 011°35'5 9.8
2019-Feb-20 17:00N 57°12' E 011°39'0 1.0
2019-Feb-20 16:30N 57°12' E 011°39'0 0.9
2019-Feb-20 15:59N 57°11' E 011°40'510.1
2019-Feb-20 15:30N 57°06' E 011°42'510.2
2019-Feb-20 15:00N 57°02' E 011°46'57 7.9
2019-Feb-20 07:52N 56°11' E 012°29'4 9.3
2019-Feb-20 07:28N 56°07' E 012°32'4 8.3
2019-Feb-20 07:00N 56°05' E 012°37'4 7.3
2019-Feb-20 06:30N 56°02' E 012°40'4 7.3
2019-Feb-20 06:00N 55°58' E 012°42'4 8.3
2019-Feb-20 05:30N 55°54' E 012°45'2 4.2
2019-Feb-20 05:00N 55°52' E 012°45'0 0.3
2019-Feb-20 04:30N 55°52' E 012°45'4 8.4
2019-Feb-20 04:00N 55°48' E 012°43'9 9.1
2019-Feb-20 03:00N 55°39' E 012°42'4 7.9
2019-Feb-20 02:30N 55°35' E 012°42'4 8.7
2019-Feb-20 02:01N 55°31' E 012°43'5 9.3
2019-Feb-20 01:31N 55°26' E 012°42'5 9.9
2019-Feb-20 01:01N 55°21' E 012°41'4 8.5
2019-Feb-20 00:30N 55°18' E 012°46'5 9.5
2019-Feb-20 00:00N 55°16' E 012°54'5 9.3
2019-Feb-19 23:30N 55°15' E 013°02'5 9.3
2019-Feb-19 23:01N 55°15' E 013°10'5 8.8
2019-Feb-19 22:24N 55°15' E 013°20'4 8.6
2019-Feb-19 21:58N 55°15' E 013°26'47 6.4
2019-Feb-19 14:36N 55°25' E 014°46'1 8.6
2019-Feb-19 14:30N 55°25' E 014°47'15 8.9
2019-Feb-19 12:50N 55°23' E 015°13'3 9.0
2019-Feb-19 12:30N 55°23' E 015°19'1 1.6
2019-Feb-19 12:00N 55°23' E 015°20'0 0.3
2019-Feb-19 11:29N 55°23' E 015°20'6 8.7
2019-Feb-19 10:51N 55°21' E 015°29'3 9.9
2019-Feb-19 10:30N 55°20' E 015°35'5 9.8
2019-Feb-19 09:59N 55°18' E 015°44'9 6.6
2019-Feb-19 08:35N 55°15' E 015°59'0 0.0
2019-Feb-19 08:25N 55°15' E 015°59'0 0.0
2019-Feb-19 07:55N 55°15' E 015°59'4 5.1
2019-Feb-19 07:05N 55°15' E 016°06'410.1
2019-Feb-19 06:40N 55°16' E 016°14'310.2
2019-Feb-19 06:24N 55°16' E 016°19'410.1
2019-Feb-19 06:00N 55°16' E 016°26'3 4.8
2019-Feb-19 05:22N 55°16' E 016°31'0 0.0
2019-Feb-19 05:00N 55°17' E 016°31'4 7.6
2019-Feb-19 04:30N 55°16' E 016°38'510.1
2019-Feb-19 04:00N 55°15' E 016°46'510.0
2019-Feb-19 03:29N 55°14' E 016°55'5 9.3
2019-Feb-19 02:58N 55°13' E 017°03'0 0.9
2019-Feb-19 02:30N 55°13' E 017°04'0 0.0
2019-Feb-19 02:00N 55°13' E 017°04'5 7.3
2019-Feb-19 01:21N 55°15' E 017°11'4 9.6
2019-Feb-19 00:57N 55°17' E 017°18'4 9.8
2019-Feb-19 00:30N 55°19' E 017°24'7 9.9
2019-Feb-18 23:51N 55°22' E 017°35'4 9.9
2019-Feb-18 23:29N 55°23' E 017°40'6 9.9
2019-Feb-18 22:53N 55°26' E 017°50'34 6.3
2019-Feb-18 17:25N 55°14' E 018°47'410.5
2019-Feb-18 17:00N 55°11' E 018°52'610.7
2019-Feb-18 16:28N 55°06' E 018°58'510.5
2019-Feb-18 16:00N 55°03' E 019°03'510.6
2019-Feb-18 15:30N 54°58' E 019°09'510.6
2019-Feb-18 15:00N 54°54' E 019°15'510.1
2019-Feb-18 14:29N 54°50' E 019°20'0 0.1
2019-Feb-18 14:00N 54°50' E 019°20'0 0.0
2019-Feb-18 13:30N 54°50' E 019°20'3 5.8
2019-Feb-18 13:00N 54°53' E 019°19'5 9.5
2019-Feb-18 12:30N 54°57' E 019°16'6 9.1
2019-Feb-18 11:50N 55°03' E 019°13'3 9.0
2019-Feb-18 11:30N 55°06' E 019°12'5 9.1
2019-Feb-18 11:00N 55°11' E 019°09'5 9.3
2019-Feb-18 10:29N 55°15' E 019°07'6 9.6
2019-Feb-18 09:53N 55°21' E 019°04'1 1.1
2019-Feb-18 08:42N 55°22' E 019°04'2510.0
2019-Feb-18 06:10N 55°47' E 019°11'218 5.2
2019-Feb-16 12:35N 59°13' E 021°24'1 6.0
2019-Feb-16 12:27N 59°13' E 021°25'3 6.3
2019-Feb-16 11:59N 59°16' E 021°29'3 6.1
2019-Feb-16 11:29N 59°18' E 021°33'0 0.0
2019-Feb-16 11:01N 59°18' E 021°33'0 0.0
2019-Feb-16 10:29N 59°18' E 021°33'0 0.8
2019-Feb-16 10:00N 59°18' E 021°34'3 6.3
2019-Feb-16 09:30N 59°19' E 021°40'3 6.3
2019-Feb-16 09:00N 59°20' E 021°45'3 6.4
2019-Feb-16 08:30N 59°21' E 021°51'3 6.9
2019-Feb-16 08:00N 59°23' E 021°58'4 7.5
2019-Feb-16 07:31N 59°24' E 022°04'3 6.6
2019-Feb-16 07:00N 59°25' E 022°11'3 6.3
2019-Feb-16 06:29N 59°26' E 022°17'3 7.1
2019-Feb-16 06:00N 59°28' E 022°23'5 7.6
2019-Feb-16 05:19N 59°30' E 022°32'3 8.2
2019-Feb-16 05:00N 59°30' E 022°37'5 9.2
2019-Feb-16 04:30N 59°32' E 022°45'5 9.3
2019-Feb-16 04:01N 59°34' E 022°54'5 9.0
2019-Feb-16 03:30N 59°35' E 023°02'4 8.7
2019-Feb-16 03:01N 59°37' E 023°10'4 8.3
2019-Feb-16 02:30N 59°38' E 023°18'4 8.6
2019-Feb-16 02:00N 59°40' E 023°26'5 9.3
2019-Feb-16 01:30N 59°42' E 023°35'5 9.5
2019-Feb-16 01:00N 59°43' E 023°43'5 9.7
2019-Feb-16 00:30N 59°45' E 023°52'5 9.7
2019-Feb-16 00:00N 59°47' E 024°01'6 9.8
2019-Feb-15 23:22N 59°49' E 024°13'4 9.9
2019-Feb-15 23:00N 59°50' E 024°20'9 9.9
2019-Feb-15 22:05N 59°54' E 024°36'1 9.8
2019-Feb-15 22:00N 59°54' E 024°38'5 9.8
2019-Feb-15 21:30N 59°57' E 024°46'5 9.8
2019-Feb-15 21:00N 59°60' E 024°54'5 9.4
2019-Feb-15 20:30N 60°04' E 024°53'5 9.6
2019-Feb-15 20:00N 60°09' E 024°54'1 1.4
2019-Feb-15 19:30N 60°10' E 024°54'0 0.0
2019-Feb-15 19:00N 60°10' E 024°54'0 0.0
2019-Feb-15 18:30N 60°10' E 024°54'0 0.0
2019-Feb-15 18:00N 60°10' E 024°54'0 0.0
2019-Feb-15 17:27N 60°10' E 024°54'0 0.0
2019-Feb-15 16:57N 60°10' E 024°54'0 0.0
2019-Feb-15 16:30N 60°10' E 024°54'0 0.0
2019-Feb-15 16:00N 60°10' E 024°54'0 0.0
2019-Feb-15 15:30N 60°10' E 024°54'0 0.0
2019-Feb-15 15:00N 60°10' E 024°54'0 0.0
2019-Feb-15 14:30N 60°10' E 024°54'0 0.0
2019-Feb-15 14:00N 60°10' E 024°54'0 0.0
2019-Feb-15 13:30N 60°10' E 024°54'0 0.0
2019-Feb-15 13:00N 60°10' E 024°54'0 0.0
2019-Feb-15 12:30N 60°10' E 024°54'0 0.0
2019-Feb-15 12:00N 60°10' E 024°54'0 0.0
2019-Feb-15 11:30N 60°10' E 024°54'0 0.0
2019-Feb-15 11:00N 60°10' E 024°54'0 0.0
2019-Feb-15 10:30N 60°10' E 024°54'0 0.0
2019-Feb-15 10:00N 60°10' E 024°54'0 0.0
2019-Feb-15 09:30N 60°10' E 024°54'0 0.0
2019-Feb-15 09:00N 60°10' E 024°54'0 0.0
2019-Feb-15 08:30N 60°10' E 024°54'0 0.0
2019-Feb-15 08:00N 60°10' E 024°54'0 0.0
2019-Feb-15 07:30N 60°10' E 024°54'0 0.0
2019-Feb-15 07:00N 60°10' E 024°54'0 0.0
2019-Feb-15 06:30N 60°10' E 024°54'0 0.0
2019-Feb-15 06:00N 60°10' E 024°54'0 0.0
2019-Feb-15 05:30N 60°10' E 024°54'0 0.0
2019-Feb-15 05:00N 60°10' E 024°54'0 0.0
2019-Feb-15 04:30N 60°10' E 024°54'0 0.0
2019-Feb-15 04:00N 60°10' E 024°54'0 0.0
2019-Feb-15 03:30N 60°10' E 024°54'0 0.0
2019-Feb-15 03:00N 60°10' E 024°54'0 0.0
2019-Feb-15 02:30N 60°10' E 024°54'0 0.0
2019-Feb-15 02:00N 60°10' E 024°54'0 0.0
2019-Feb-15 01:30N 60°10' E 024°54'0 0.0
2019-Feb-15 01:00N 60°10' E 024°54'0 0.0
2019-Feb-15 00:30N 60°10' E 024°54'0 0.0
2019-Feb-15 00:00N 60°10' E 024°54'0 0.0
2019-Feb-14 23:30N 60°10' E 024°54'0 0.0
2019-Feb-14 23:00N 60°10' E 024°54'0 0.0
2019-Feb-14 22:30N 60°10' E 024°54'0 0.0
2019-Feb-14 22:00N 60°10' E 024°54'0 0.0
2019-Feb-14 21:27N 60°10' E 024°54'0 0.0
2019-Feb-14 21:00N 60°10' E 024°54'0 0.0
2019-Feb-14 20:30N 60°10' E 024°54'0 0.0
2019-Feb-14 20:00N 60°10' E 024°54'0 0.0
2019-Feb-14 19:30N 60°10' E 024°54'0 0.0
2019-Feb-14 19:00N 60°10' E 024°54'0 0.0
2019-Feb-14 18:30N 60°10' E 024°54'0 0.0
2019-Feb-14 18:00N 60°10' E 024°54'0 0.0
2019-Feb-14 17:30N 60°10' E 024°54'0 0.0
2019-Feb-14 17:00N 60°10' E 024°54'0 0.0
2019-Feb-14 16:30N 60°10' E 024°54'0 0.0
2019-Feb-14 16:00N 60°10' E 024°54'0 0.0
2019-Feb-14 15:30N 60°10' E 024°54'0 0.0
2019-Feb-14 15:00N 60°10' E 024°54'0 0.0
2019-Feb-14 14:30N 60°10' E 024°54'0 0.0
2019-Feb-14 14:00N 60°10' E 024°54'0 0.0
2019-Feb-14 13:30N 60°10' E 024°54'0 0.0
2019-Feb-14 12:57N 60°10' E 024°54'0 0.0
2019-Feb-14 12:30N 60°10' E 024°54'0 0.0
2019-Feb-14 12:00N 60°10' E 024°54'0 0.0
2019-Feb-14 11:30N 60°10' E 024°54'0 0.0
2019-Feb-14 11:00N 60°10' E 024°54'0 0.0
2019-Feb-14 10:30N 60°10' E 024°54'0 0.0
2019-Feb-14 10:00N 60°10' E 024°54'0 0.0
2019-Feb-14 09:30N 60°10' E 024°54'0 0.0
2019-Feb-14 09:00N 60°10' E 024°54'0 0.0
2019-Feb-14 08:27N 60°10' E 024°54'0 0.0
2019-Feb-14 08:00N 60°10' E 024°54'0 0.0
2019-Feb-14 07:30N 60°10' E 024°54'0 0.0
2019-Feb-14 07:00N 60°10' E 024°54'0 0.0
2019-Feb-14 06:30N 60°10' E 024°54'0 0.0
2019-Feb-14 06:00N 60°10' E 024°54'0 0.0
2019-Feb-14 05:30N 60°10' E 024°54'0 0.0
2019-Feb-14 05:00N 60°10' E 024°54'0 0.0
2019-Feb-14 04:30N 60°10' E 024°54'0 0.0
2019-Feb-14 04:00N 60°10' E 024°54'0 0.0
2019-Feb-14 03:00N 60°10' E 024°54'0 0.0
2019-Feb-14 02:30N 60°10' E 024°54'0 0.0
2019-Feb-14 02:00N 60°10' E 024°54'0 0.0
2019-Feb-14 01:30N 60°10' E 024°54'0 0.0
2019-Feb-14 01:00N 60°10' E 024°54'0 0.0
2019-Feb-14 00:30N 60°10' E 024°54'0 0.0
2019-Feb-14 00:00N 60°10' E 024°54'  
Track history (hours):
 
Tides and Currents Weather Stations Pressure Air Temp Water Temp Dewpoint Dewpoint Depression Visibility Wind Speed Wind Dir Waves Ship Positions

Oceanographic research ship Aranda (Finland)

Detailed information on ship capabilities available from University of Delaware's Ocean Information Center and ARCUS's ALIAS (Arctic Logistics Information and Support) project.

Last reported at 2019-Feb-23 23:33 UTC. Time now 2019-Feb-24 00:17 UTC.
Position N 57°50' E 017°36'.

Length 66 m; draft 4.6 m.

Type: Neutral ship in war zone. MMSI: 230145000.

Date/timePositionNaut miles runAvg speedWind from/ knotsBaromVisibWave heightAir tempDewpointWater temp
2019-Feb-23 23:33N 57°50' E 017°36'112.1
2019-Feb-23 23:30N 57°49' E 017°35'612.3
2019-Feb-23 23:00N 57°45' E 017°26'3 5.7
2019-Feb-23 22:28N 57°43' E 017°22'49 7.8
2019-Feb-23 16:11N 56°54' E 017°25'3112.2
2019-Feb-23 13:38N 56°27' E 016°55'212.1
2019-Feb-23 13:30N 56°26' E 016°54'612.3
2019-Feb-23 13:00N 56°21' E 016°48'612.5
2019-Feb-23 12:31N 56°16' E 016°42'612.5
2019-Feb-23 12:01N 56°10' E 016°36'4 7.8
2019-Feb-23 11:30N 56°07' E 016°32'0 0.0
2019-Feb-23 11:00N 56°07' E 016°32'5 9.7
2019-Feb-23 10:30N 56°06' E 016°24'611.7
2019-Feb-23 10:00N 56°11' E 016°19'612.3
2019-Feb-23 09:30N 56°17' E 016°15'611.7
2019-Feb-23 09:00N 56°22' E 016°12'0 0.0
2019-Feb-23 08:30N 56°22' E 016°12'2 4.6
2019-Feb-23 08:00N 56°20' E 016°11'612.4
2019-Feb-23 07:30N 56°14' E 016°08'612.3
2019-Feb-23 07:00N 56°09' E 016°03'612.6
2019-Feb-23 06:31N 56°03' E 015°57'612.8
2019-Feb-23 06:01N 55°58' E 015°50'612.2
2019-Feb-23 05:31N 55°54' E 015°42'612.7
2019-Feb-23 05:01N 55°51' E 015°32'612.6
2019-Feb-23 04:30N 55°48' E 015°22'1 2.0
2019-Feb-23 04:00N 55°48' E 015°20'1 1.1
2019-Feb-23 03:31N 55°48' E 015°19'612.3
2019-Feb-23 03:01N 55°44' E 015°10'612.3
2019-Feb-23 02:31N 55°41' E 015°01'612.2
2019-Feb-23 01:59N 55°37' E 014°52'0 0.2
2019-Feb-23 01:23N 55°37' E 014°52'3 4.6
2019-Feb-23 00:40N 55°34' E 014°48'212.4
2019-Feb-23 00:30N 55°33' E 014°46'612.4
2019-Feb-23 00:00N 55°27' E 014°42'912.5
2019-Feb-22 23:15N 55°20' E 014°32'412.5
2019-Feb-22 22:58N 55°17' E 014°28'912.6
2019-Feb-22 22:17N 55°10' E 014°20'412.7
2019-Feb-22 21:58N 55°06' E 014°16'612.7
2019-Feb-22 21:30N 55°02' E 014°10'4 2.8
2019-Feb-22 20:03N 54°58' E 014°06'0 0.0
2019-Feb-22 19:59N 54°58' E 014°06'45 9.1
2019-Feb-22 14:58N 55°10' E 012°49'4 9.5
2019-Feb-22 14:30N 55°12' E 012°42'5 9.2
2019-Feb-22 14:00N 55°14' E 012°36'2 4.6
2019-Feb-22 13:30N 55°16' E 012°34'1 1.5
2019-Feb-22 13:00N 55°17' E 012°35'5 9.8
2019-Feb-22 12:30N 55°22' E 012°37'5 9.7
2019-Feb-22 12:00N 55°26' E 012°39'5 9.6
2019-Feb-22 11:30N 55°31' E 012°41'4 8.9
2019-Feb-22 11:00N 55°35' E 012°42'4 8.6
2019-Feb-22 10:30N 55°40' E 012°41'4 9.0
2019-Feb-22 10:00N 55°44' E 012°41'5 9.3
2019-Feb-22 09:30N 55°49' E 012°40'4 8.8
2019-Feb-22 09:00N 55°53' E 012°39'4 8.8
2019-Feb-22 08:30N 55°58' E 012°40'4 8.9
2019-Feb-22 08:00N 56°02' E 012°39'4 7.7
2019-Feb-22 07:30N 56°05' E 012°35'4 7.2
2019-Feb-22 07:00N 56°07' E 012°30'64 6.6
2019-Feb-21 21:19N 57°10' E 011°59'3 9.4
2019-Feb-21 21:00N 57°12' E 011°57'5 9.2
2019-Feb-21 20:30N 57°16' E 011°53'5 9.8
2019-Feb-21 20:00N 57°21' E 011°48'5 9.9
2019-Feb-21 19:30N 57°25' E 011°44'5 9.7
2019-Feb-21 19:00N 57°29' E 011°40'5 9.5
2019-Feb-21 18:30N 57°34' E 011°38'510.7
2019-Feb-21 18:00N 57°39' E 011°42'510.1
2019-Feb-21 17:30N 57°41' E 011°50'3 6.4
2019-Feb-21 17:00N 57°42' E 011°56'0 0.0
2019-Feb-21 16:30N 57°42' E 011°56'0 0.0
2019-Feb-21 16:00N 57°42' E 011°56'0 0.0
2019-Feb-21 15:30N 57°42' E 011°56'0 0.0
2019-Feb-21 15:00N 57°42' E 011°56'0 0.6
2019-Feb-21 14:30N 57°42' E 011°55'4 8.1
2019-Feb-21 14:00N 57°41' E 011°48'5 9.0
2019-Feb-21 13:30N 57°38' E 011°41'4 7.4
2019-Feb-21 13:00N 57°38' E 011°35'5 9.7
2019-Feb-21 12:30N 57°41' E 011°28'5 9.2
2019-Feb-21 12:00N 57°45' E 011°23'510.0
2019-Feb-21 11:30N 57°49' E 011°20'3 5.5
2019-Feb-21 11:00N 57°52' E 011°18'0 0.0
2019-Feb-21 10:30N 57°52' E 011°18'4 7.6
2019-Feb-21 10:00N 57°56' E 011°15'510.0
2019-Feb-21 09:30N 58°00' E 011°13'5 9.2
2019-Feb-21 09:00N 58°05' E 011°10'4 8.8
2019-Feb-21 08:30N 58°09' E 011°08'5 9.6
2019-Feb-21 08:00N 58°14' E 011°05'5 9.6
2019-Feb-21 07:30N 58°18' E 011°03'2 4.3
2019-Feb-21 07:00N 58°20' E 011°02'0 0.1
2019-Feb-21 06:30N 58°20' E 011°02'3 6.0
2019-Feb-21 06:00N 58°19' E 010°57'1 1.9
2019-Feb-21 05:30N 58°19' E 010°55'2 4.8
2019-Feb-21 05:00N 58°18' E 010°51'0 0.0
2019-Feb-21 04:30N 58°18' E 010°51'0 0.7
2019-Feb-21 04:00N 58°18' E 010°50'4 7.5
2019-Feb-21 03:30N 58°16' E 010°43'0 0.4
2019-Feb-21 03:00N 58°16' E 010°43'510.2
2019-Feb-21 02:30N 58°17' E 010°34'2 3.5
2019-Feb-21 02:00N 58°17' E 010°30'0 0.0
2019-Feb-21 01:30N 58°17' E 010°30'0 0.0
2019-Feb-21 01:00N 58°17' E 010°30'0 0.1
2019-Feb-21 00:30N 58°17' E 010°30'5 9.1
2019-Feb-21 00:00N 58°13' E 010°34'510.3
2019-Feb-20 23:30N 58°09' E 010°39'510.1
2019-Feb-20 23:00N 58°04' E 010°45'510.4
2019-Feb-20 22:30N 58°00' E 010°50'510.5
2019-Feb-20 22:00N 57°56' E 010°55'510.2
2019-Feb-20 21:30N 57°51' E 010°60'510.1
2019-Feb-20 21:00N 57°47' E 011°05'5 9.9
2019-Feb-20 20:30N 57°43' E 011°10'5 9.8
2019-Feb-20 20:00N 57°38' E 011°14'5 9.7
2019-Feb-20 19:30N 57°34' E 011°19'510.1
2019-Feb-20 19:00N 57°30' E 011°24'5 9.8
2019-Feb-20 18:30N 57°26' E 011°28'5 9.9
2019-Feb-20 18:00N 57°21' E 011°32'510.0
2019-Feb-20 17:30N 57°16' E 011°35'5 9.8
2019-Feb-20 17:00N 57°12' E 011°39'0 1.0
2019-Feb-20 16:30N 57°12' E 011°39'0 0.9
2019-Feb-20 15:59N 57°11' E 011°40'510.1
2019-Feb-20 15:30N 57°06' E 011°42'510.2
2019-Feb-20 15:00N 57°02' E 011°46'57 7.9
2019-Feb-20 07:52N 56°11' E 012°29'4 9.3
2019-Feb-20 07:28N 56°07' E 012°32'4 8.3
2019-Feb-20 07:00N 56°05' E 012°37'4 7.3
2019-Feb-20 06:30N 56°02' E 012°40'4 7.3
2019-Feb-20 06:00N 55°58' E 012°42'4 8.3
2019-Feb-20 05:30N 55°54' E 012°45'2 4.2
2019-Feb-20 05:00N 55°52' E 012°45'0 0.3
2019-Feb-20 04:30N 55°52' E 012°45'4 8.4
2019-Feb-20 04:00N 55°48' E 012°43'9 9.1
2019-Feb-20 03:00N 55°39' E 012°42'4 7.9
2019-Feb-20 02:30N 55°35' E 012°42'4 8.7
2019-Feb-20 02:01N 55°31' E 012°43'5 9.3
2019-Feb-20 01:31N 55°26' E 012°42'5 9.9
2019-Feb-20 01:01N 55°21' E 012°41'4 8.5
2019-Feb-20 00:30N 55°18' E 012°46'5 9.5
2019-Feb-20 00:00N 55°16' E 012°54'5 9.3
2019-Feb-19 23:30N 55°15' E 013°02'5 9.3
2019-Feb-19 23:01N 55°15' E 013°10'5 8.8
2019-Feb-19 22:24N 55°15' E 013°20'4 8.6
2019-Feb-19 21:58N 55°15' E 013°26'47 6.4
2019-Feb-19 14:36N 55°25' E 014°46'1 8.6
2019-Feb-19 14:30N 55°25' E 014°47'15 8.9
2019-Feb-19 12:50N 55°23' E 015°13'3 9.0
2019-Feb-19 12:30N 55°23' E 015°19'1 1.6
2019-Feb-19 12:00N 55°23' E 015°20'0 0.3
2019-Feb-19 11:29N 55°23' E 015°20'6 8.7
2019-Feb-19 10:51N 55°21' E 015°29'3 9.9
2019-Feb-19 10:30N 55°20' E 015°35'5 9.8
2019-Feb-19 09:59N 55°18' E 015°44'9 6.6
2019-Feb-19 08:35N 55°15' E 015°59'0 0.0
2019-Feb-19 08:25N 55°15' E 015°59'0 0.0
2019-Feb-19 07:55N 55°15' E 015°59'4 5.1
2019-Feb-19 07:05N 55°15' E 016°06'410.1
2019-Feb-19 06:40N 55°16' E 016°14'310.2
2019-Feb-19 06:24N 55°16' E 016°19'410.1
2019-Feb-19 06:00N 55°16' E 016°26'3 4.8
2019-Feb-19 05:22N 55°16' E 016°31'0 0.0
2019-Feb-19 05:00N 55°17' E 016°31'4 7.6
2019-Feb-19 04:30N 55°16' E 016°38'510.1
2019-Feb-19 04:00N 55°15' E 016°46'510.0
2019-Feb-19 03:29N 55°14' E 016°55'5 9.3
2019-Feb-19 02:58N 55°13' E 017°03'0 0.9
2019-Feb-19 02:30N 55°13' E 017°04'0 0.0
2019-Feb-19 02:00N 55°13' E 017°04'5 7.3
2019-Feb-19 01:21N 55°15' E 017°11'4 9.6
2019-Feb-19 00:57N 55°17' E 017°18'4 9.8
2019-Feb-19 00:30N 55°19' E 017°24'7 9.9
2019-Feb-18 23:51N 55°22' E 017°35'4 9.9
2019-Feb-18 23:29N 55°23' E 017°40'6 9.9
2019-Feb-18 22:53N 55°26' E 017°50'34 6.3
2019-Feb-18 17:25N 55°14' E 018°47'410.5
2019-Feb-18 17:00N 55°11' E 018°52'610.7
2019-Feb-18 16:28N 55°06' E 018°58'510.5
2019-Feb-18 16:00N 55°03' E 019°03'510.6
2019-Feb-18 15:30N 54°58' E 019°09'510.6
2019-Feb-18 15:00N 54°54' E 019°15'510.1
2019-Feb-18 14:29N 54°50' E 019°20'0 0.1
2019-Feb-18 14:00N 54°50' E 019°20'0 0.0
2019-Feb-18 13:30N 54°50' E 019°20'3 5.8
2019-Feb-18 13:00N 54°53' E 019°19'5 9.5
2019-Feb-18 12:30N 54°57' E 019°16'6 9.1
2019-Feb-18 11:50N 55°03' E 019°13'3 9.0
2019-Feb-18 11:30N 55°06' E 019°12'5 9.1
2019-Feb-18 11:00N 55°11' E 019°09'5 9.3
2019-Feb-18 10:29N 55°15' E 019°07'6 9.6
2019-Feb-18 09:53N 55°21' E 019°04'1 1.1
2019-Feb-18 08:42N 55°22' E 019°04'2510.0
2019-Feb-18 06:10N 55°47' E 019°11'218 5.2
2019-Feb-16 12:35N 59°13' E 021°24'1 6.0
2019-Feb-16 12:27N 59°13' E 021°25'3 6.3
2019-Feb-16 11:59N 59°16' E 021°29'3 6.1
2019-Feb-16 11:29N 59°18' E 021°33'0 0.0
2019-Feb-16 11:01N 59°18' E 021°33'0 0.0
2019-Feb-16 10:29N 59°18' E 021°33'0 0.8
2019-Feb-16 10:00N 59°18' E 021°34'3 6.3
2019-Feb-16 09:30N 59°19' E 021°40'3 6.3
2019-Feb-16 09:00N 59°20' E 021°45'3 6.4
2019-Feb-16 08:30N 59°21' E 021°51'3 6.9
2019-Feb-16 08:00N 59°23' E 021°58'4 7.5
2019-Feb-16 07:31N 59°24' E 022°04'3 6.6
2019-Feb-16 07:00N 59°25' E 022°11'3 6.3
2019-Feb-16 06:29N 59°26' E 022°17'3 7.1
2019-Feb-16 06:00N 59°28' E 022°23'5 7.6
2019-Feb-16 05:19N 59°30' E 022°32'3 8.2
2019-Feb-16 05:00N 59°30' E 022°37'5 9.2
2019-Feb-16 04:30N 59°32' E 022°45'5 9.3
2019-Feb-16 04:01N 59°34' E 022°54'5 9.0
2019-Feb-16 03:30N 59°35' E 023°02'4 8.7
2019-Feb-16 03:01N 59°37' E 023°10'4 8.3
2019-Feb-16 02:30N 59°38' E 023°18'4 8.6
2019-Feb-16 02:00N 59°40' E 023°26'5 9.3
2019-Feb-16 01:30N 59°42' E 023°35'5 9.5
2019-Feb-16 01:00N 59°43' E 023°43'5 9.7
2019-Feb-16 00:30N 59°45' E 023°52'5 9.7
2019-Feb-16 00:00N 59°47' E 024°01'6 9.8
2019-Feb-15 23:22N 59°49' E 024°13'4 9.9
2019-Feb-15 23:00N 59°50' E 024°20'9 9.9
2019-Feb-15 22:05N 59°54' E 024°36'1 9.8
2019-Feb-15 22:00N 59°54' E 024°38'5 9.8
2019-Feb-15 21:30N 59°57' E 024°46'5 9.8
2019-Feb-15 21:00N 59°60' E 024°54'5 9.4
2019-Feb-15 20:30N 60°04' E 024°53'5 9.6
2019-Feb-15 20:00N 60°09' E 024°54'1 1.4
2019-Feb-15 19:30N 60°10' E 024°54'0 0.0
2019-Feb-15 19:00N 60°10' E 024°54'0 0.0
2019-Feb-15 18:30N 60°10' E 024°54'0 0.0
2019-Feb-15 18:00N 60°10' E 024°54'0 0.0
2019-Feb-15 17:27N 60°10' E 024°54'0 0.0
2019-Feb-15 16:57N 60°10' E 024°54'0 0.0
2019-Feb-15 16:30N 60°10' E 024°54'0 0.0
2019-Feb-15 16:00N 60°10' E 024°54'0 0.0
2019-Feb-15 15:30N 60°10' E 024°54'0 0.0
2019-Feb-15 15:00N 60°10' E 024°54'0 0.0
2019-Feb-15 14:30N 60°10' E 024°54'0 0.0
2019-Feb-15 14:00N 60°10' E 024°54'0 0.0
2019-Feb-15 13:30N 60°10' E 024°54'0 0.0
2019-Feb-15 13:00N 60°10' E 024°54'0 0.0
2019-Feb-15 12:30N 60°10' E 024°54'0 0.0
2019-Feb-15 12:00N 60°10' E 024°54'0 0.0
2019-Feb-15 11:30N 60°10' E 024°54'0 0.0
2019-Feb-15 11:00N 60°10' E 024°54'0 0.0
2019-Feb-15 10:30N 60°10' E 024°54'0 0.0
2019-Feb-15 10:00N 60°10' E 024°54'0 0.0
2019-Feb-15 09:30N 60°10' E 024°54'0 0.0
2019-Feb-15 09:00N 60°10' E 024°54'0 0.0
2019-Feb-15 08:30N 60°10' E 024°54'0 0.0
2019-Feb-15 08:00N 60°10' E 024°54'0 0.0
2019-Feb-15 07:30N 60°10' E 024°54'0 0.0
2019-Feb-15 07:00N 60°10' E 024°54'0 0.0
2019-Feb-15 06:30N 60°10' E 024°54'0 0.0
2019-Feb-15 06:00N 60°10' E 024°54'0 0.0
2019-Feb-15 05:30N 60°10' E 024°54'0 0.0
2019-Feb-15 05:00N 60°10' E 024°54'0 0.0
2019-Feb-15 04:30N 60°10' E 024°54'0 0.0
2019-Feb-15 04:00N 60°10' E 024°54'0 0.0
2019-Feb-15 03:30N 60°10' E 024°54'0 0.0
2019-Feb-15 03:00N 60°10' E 024°54'0 0.0
2019-Feb-15 02:30N 60°10' E 024°54'0 0.0
2019-Feb-15 02:00N 60°10' E 024°54'0 0.0
2019-Feb-15 01:30N 60°10' E 024°54'0 0.0
2019-Feb-15 01:00N 60°10' E 024°54'0 0.0
2019-Feb-15 00:30N 60°10' E 024°54'0 0.0
2019-Feb-15 00:00N 60°10' E 024°54'0 0.0
2019-Feb-14 23:30N 60°10' E 024°54'0 0.0
2019-Feb-14 23:00N 60°10' E 024°54'0 0.0
2019-Feb-14 22:30N 60°10' E 024°54'0 0.0
2019-Feb-14 22:00N 60°10' E 024°54'0 0.0
2019-Feb-14 21:27N 60°10' E 024°54'0 0.0
2019-Feb-14 21:00N 60°10' E 024°54'0 0.0
2019-Feb-14 20:30N 60°10' E 024°54'0 0.0
2019-Feb-14 20:00N 60°10' E 024°54'0 0.0
2019-Feb-14 19:30N 60°10' E 024°54'0 0.0
2019-Feb-14 19:00N 60°10' E 024°54'0 0.0
2019-Feb-14 18:30N 60°10' E 024°54'0 0.0
2019-Feb-14 18:00N 60°10' E 024°54'0 0.0
2019-Feb-14 17:30N 60°10' E 024°54'0 0.0
2019-Feb-14 17:00N 60°10' E 024°54'0 0.0
2019-Feb-14 16:30N 60°10' E 024°54'0 0.0
2019-Feb-14 16:00N 60°10' E 024°54'0 0.0
2019-Feb-14 15:30N 60°10' E 024°54'0 0.0
2019-Feb-14 15:00N 60°10' E 024°54'0 0.0
2019-Feb-14 14:30N 60°10' E 024°54'0 0.0
2019-Feb-14 14:00N 60°10' E 024°54'0 0.0
2019-Feb-14 13:30N 60°10' E 024°54'0 0.0
2019-Feb-14 12:57N 60°10' E 024°54'0 0.0
2019-Feb-14 12:30N 60°10' E 024°54'0 0.0
2019-Feb-14 12:00N 60°10' E 024°54'0 0.0
2019-Feb-14 11:30N 60°10' E 024°54'0 0.0
2019-Feb-14 11:00N 60°10' E 024°54'0 0.0
2019-Feb-14 10:30N 60°10' E 024°54'0 0.0
2019-Feb-14 10:00N 60°10' E 024°54'0 0.0
2019-Feb-14 09:30N 60°10' E 024°54'0 0.0
2019-Feb-14 09:00N 60°10' E 024°54'0 0.0
2019-Feb-14 08:27N 60°10' E 024°54'0 0.0
2019-Feb-14 08:00N 60°10' E 024°54'0 0.0
2019-Feb-14 07:30N 60°10' E 024°54'0 0.0
2019-Feb-14 07:00N 60°10' E 024°54'0 0.0
2019-Feb-14 06:30N 60°10' E 024°54'0 0.0
2019-Feb-14 06:00N 60°10' E 024°54'0 0.0
2019-Feb-14 05:30N 60°10' E 024°54'0 0.0
2019-Feb-14 05:00N 60°10' E 024°54'0 0.0
2019-Feb-14 04:30N 60°10' E 024°54'0 0.0
2019-Feb-14 04:00N 60°10' E 024°54'0 0.0
2019-Feb-14 03:00N 60°10' E 024°54'0 0.0
2019-Feb-14 02:30N 60°10' E 024°54'0 0.0
2019-Feb-14 02:00N 60°10' E 024°54'0 0.0
2019-Feb-14 01:30N 60°10' E 024°54'0 0.0
2019-Feb-14 01:00N 60°10' E 024°54'0 0.0
2019-Feb-14 00:30N 60°10' E 024°54'0 0.0
2019-Feb-14 00:00N 60°10' E 024°54'  

Dump ship's entire track history